sensor_id;sensor_type;location;lat;lon;timestamp;temperature;humidity
69009;SHT31;56065;52.472;13.380;2023-04-12T00:01:35;6.33;81.60
69009;SHT31;56065;52.472;13.380;2023-04-12T00:04:00;6.29;81.23
69009;SHT31;56065;52.472;13.380;2023-04-12T00:06:29;6.26;81.56
69009;SHT31;56065;52.472;13.380;2023-04-12T00:08:58;6.21;81.67
69009;SHT31;56065;52.472;13.380;2023-04-12T00:11:23;6.13;81.91
69009;SHT31;56065;52.472;13.380;2023-04-12T00:13:48;6.11;82.10
69009;SHT31;56065;52.472;13.380;2023-04-12T00:16:14;6.09;82.07
69009;SHT31;56065;52.472;13.380;2023-04-12T00:18:40;6.03;82.46
69009;SHT31;56065;52.472;13.380;2023-04-12T00:21:07;6.07;82.01
69009;SHT31;56065;52.472;13.380;2023-04-12T00:23:34;6.13;81.89
69009;SHT31;56065;52.472;13.380;2023-04-12T00:26:02;6.17;81.83
69009;SHT31;56065;52.472;13.380;2023-04-12T00:28:27;6.13;82.16
69009;SHT31;56065;52.472;13.380;2023-04-12T00:30:53;6.14;81.73
69009;SHT31;56065;52.472;13.380;2023-04-12T00:33:18;6.10;81.76
69009;SHT31;56065;52.472;13.380;2023-04-12T00:35:43;6.10;81.72
69009;SHT31;56065;52.472;13.380;2023-04-12T00:38:09;6.10;81.64
69009;SHT31;56065;52.472;13.380;2023-04-12T00:40:36;6.07;81.64
69009;SHT31;56065;52.472;13.380;2023-04-12T00:43:05;6.09;81.52
69009;SHT31;56065;52.472;13.380;2023-04-12T00:45:30;6.07;81.72
69009;SHT31;56065;52.472;13.380;2023-04-12T00:47:56;6.05;81.52
69009;SHT31;56065;52.472;13.380;2023-04-12T00:50:21;6.05;81.52
69009;SHT31;56065;52.472;13.380;2023-04-12T00:52:48;5.98;81.80
69009;SHT31;56065;52.472;13.380;2023-04-12T00:55:14;5.98;81.84
69009;SHT31;56065;52.472;13.380;2023-04-12T00:57:40;6.00;81.57
69009;SHT31;56065;52.472;13.380;2023-04-12T01:00:07;5.99;81.60
69009;SHT31;56065;52.472;13.380;2023-04-12T01:02:37;5.96;81.50
69009;SHT31;56065;52.472;13.380;2023-04-12T01:05:07;5.89;81.21
69009;SHT31;56065;52.472;13.380;2023-04-12T01:07:38;5.78;81.40
69009;SHT31;56065;52.472;13.380;2023-04-12T01:10:18;5.65;81.96
69009;SHT31;56065;52.472;13.380;2023-04-12T01:16:01;5.55;82.42
69009;SHT31;56065;52.472;13.380;2023-04-12T01:18:29;5.52;82.49
69009;SHT31;56065;52.472;13.380;2023-04-12T01:21:05;5.49;82.46
69009;SHT31;56065;52.472;13.380;2023-04-12T01:24:00;5.48;82.54
69009;SHT31;56065;52.472;13.380;2023-04-12T01:26:33;5.47;82.15
69009;SHT31;56065;52.472;13.380;2023-04-12T01:29:03;5.44;82.09
69009;SHT31;56065;52.472;13.380;2023-04-12T01:31:33;5.41;82.25
69009;SHT31;56065;52.472;13.380;2023-04-12T01:34:00;5.38;82.18
69009;SHT31;56065;52.472;13.380;2023-04-12T01:36:27;5.37;82.44
69009;SHT31;56065;52.472;13.380;2023-04-12T01:38:53;5.35;82.43
69009;SHT31;56065;52.472;13.380;2023-04-12T01:41:19;5.32;82.32
69009;SHT31;56065;52.472;13.380;2023-04-12T01:43:46;5.28;82.54
69009;SHT31;56065;52.472;13.380;2023-04-12T01:46:12;5.31;82.32
69009;SHT31;56065;52.472;13.380;2023-04-12T01:48:38;5.20;82.69
69009;SHT31;56065;52.472;13.380;2023-04-12T01:51:09;5.21;82.78
69009;SHT31;56065;52.472;13.380;2023-04-12T01:53:49;5.20;83.13
69009;SHT31;56065;52.472;13.380;2023-04-12T01:56:19;5.21;82.87
69009;SHT31;56065;52.472;13.380;2023-04-12T01:58:47;5.20;82.80
69009;SHT31;56065;52.472;13.380;2023-04-12T02:01:16;5.20;82.85
69009;SHT31;56065;52.472;13.380;2023-04-12T02:03:44;5.20;82.73
69009;SHT31;56065;52.472;13.380;2023-04-12T02:06:11;5.14;82.83
69009;SHT31;56065;52.472;13.380;2023-04-12T02:08:36;5.17;82.84
69009;SHT31;56065;52.472;13.380;2023-04-12T02:11:11;5.08;83.34
69009;SHT31;56065;52.472;13.380;2023-04-12T02:13:38;5.06;83.58
69009;SHT31;56065;52.472;13.380;2023-04-12T02:16:05;5.10;83.36
69009;SHT31;56065;52.472;13.380;2023-04-12T02:18:32;5.14;82.92
69009;SHT31;56065;52.472;13.380;2023-04-12T02:20:59;5.04;83.26
69009;SHT31;56065;52.472;13.380;2023-04-12T02:23:24;5.01;83.52
69009;SHT31;56065;52.472;13.380;2023-04-12T02:25:50;5.06;83.37
69009;SHT31;56065;52.472;13.380;2023-04-12T02:28:15;5.08;83.28
69009;SHT31;56065;52.472;13.380;2023-04-12T02:30:40;5.11;83.39
69009;SHT31;56065;52.472;13.380;2023-04-12T02:33:06;5.10;83.02
69009;SHT31;56065;52.472;13.380;2023-04-12T02:35:34;5.06;83.04
69009;SHT31;56065;52.472;13.380;2023-04-12T02:38:00;4.98;83.73
69009;SHT31;56065;52.472;13.380;2023-04-12T02:40:28;4.97;83.35
69009;SHT31;56065;52.472;13.380;2023-04-12T02:42:53;4.91;83.45
69009;SHT31;56065;52.472;13.380;2023-04-12T02:45:19;4.93;83.57
69009;SHT31;56065;52.472;13.380;2023-04-12T02:47:44;4.89;83.31
69009;SHT31;56065;52.472;13.380;2023-04-12T02:50:10;4.87;83.58
69009;SHT31;56065;52.472;13.380;2023-04-12T02:52:35;4.87;83.82
69009;SHT31;56065;52.472;13.380;2023-04-12T02:55:01;4.90;83.66
69009;SHT31;56065;52.472;13.380;2023-04-12T02:57:26;4.90;83.55
69009;SHT31;56065;52.472;13.380;2023-04-12T02:59:51;4.91;83.45
69009;SHT31;56065;52.472;13.380;2023-04-12T03:02:18;4.89;83.35
69009;SHT31;56065;52.472;13.380;2023-04-12T03:04:43;4.84;83.46
69009;SHT31;56065;52.472;13.380;2023-04-12T03:07:11;4.80;83.41
69009;SHT31;56065;52.472;13.380;2023-04-12T03:09:36;4.72;83.47
69009;SHT31;56065;52.472;13.380;2023-04-12T03:12:02;4.67;83.39
69009;SHT31;56065;52.472;13.380;2023-04-12T03:14:28;4.62;83.42
69009;SHT31;56065;52.472;13.380;2023-04-12T03:16:53;4.59;83.48
69009;SHT31;56065;52.472;13.380;2023-04-12T03:19:19;4.53;83.54
69009;SHT31;56065;52.472;13.380;2023-04-12T03:21:44;4.46;83.84
69009;SHT31;56065;52.472;13.380;2023-04-12T03:24:10;4.48;83.59
69009;SHT31;56065;52.472;13.380;2023-04-12T03:26:35;4.48;83.54
69009;SHT31;56065;52.472;13.380;2023-04-12T03:29:02;4.46;83.68
69009;SHT31;56065;52.472;13.380;2023-04-12T03:31:33;4.41;83.98
69009;SHT31;56065;52.472;13.380;2023-04-12T03:33:59;4.41;83.79
69009;SHT31;56065;52.472;13.380;2023-04-12T03:36:24;4.39;83.76
69009;SHT31;56065;52.472;13.380;2023-04-12T03:38:51;4.42;83.62
69009;SHT31;56065;52.472;13.380;2023-04-12T03:41:16;4.36;83.87
69009;SHT31;56065;52.472;13.380;2023-04-12T03:43:42;4.32;84.13
69009;SHT31;56065;52.472;13.380;2023-04-12T03:46:07;4.32;84.28
69009;SHT31;56065;52.472;13.380;2023-04-12T03:48:33;4.35;83.89
69009;SHT31;56065;52.472;13.380;2023-04-12T03:50:59;4.31;83.94
69009;SHT31;56065;52.472;13.380;2023-04-12T03:53:31;4.24;84.17
69009;SHT31;56065;52.472;13.380;2023-04-12T03:55:57;4.15;84.20
69009;SHT31;56065;52.472;13.380;2023-04-12T03:58:22;4.12;84.07
69009;SHT31;56065;52.472;13.380;2023-04-12T04:00:47;4.14;84.38
69009;SHT31;56065;52.472;13.380;2023-04-12T04:03:14;4.12;84.29
69009;SHT31;56065;52.472;13.380;2023-04-12T04:05:39;4.11;84.19
69009;SHT31;56065;52.472;13.380;2023-04-12T04:08:05;4.11;84.13
69009;SHT31;56065;52.472;13.380;2023-04-12T04:10:31;4.08;84.09
69009;SHT31;56065;52.472;13.380;2023-04-12T04:12:57;4.07;84.14
69009;SHT31;56065;52.472;13.380;2023-04-12T04:15:24;4.05;84.13
69009;SHT31;56065;52.472;13.380;2023-04-12T04:17:50;4.04;84.10
69009;SHT31;56065;52.472;13.380;2023-04-12T04:20:15;4.02;84.11
69009;SHT31;56065;52.472;13.380;2023-04-12T04:22:43;4.01;84.09
69009;SHT31;56065;52.472;13.380;2023-04-12T04:25:09;4.01;84.24
69009;SHT31;56065;52.472;13.380;2023-04-12T04:27:34;4.02;84.60
69009;SHT31;56065;52.472;13.380;2023-04-12T04:30:02;4.07;84.29
69009;SHT31;56065;52.472;13.380;2023-04-12T04:32:29;4.08;84.40
69009;SHT31;56065;52.472;13.380;2023-04-12T04:34:55;4.11;84.23
69009;SHT31;56065;52.472;13.380;2023-04-12T04:37:27;4.14;84.56
69009;SHT31;56065;52.472;13.380;2023-04-12T04:39:53;4.15;84.50
69009;SHT31;56065;52.472;13.380;2023-04-12T04:42:19;4.25;84.62
69009;SHT31;56065;52.472;13.380;2023-04-12T04:44:46;4.27;84.83
69009;SHT31;56065;52.472;13.380;2023-04-12T04:47:12;4.34;84.58
69009;SHT31;56065;52.472;13.380;2023-04-12T04:49:37;4.35;84.46
69009;SHT31;56065;52.472;13.380;2023-04-12T04:52:03;4.41;84.17
69009;SHT31;56065;52.472;13.380;2023-04-12T04:54:29;4.35;84.68
69009;SHT31;56065;52.472;13.380;2023-04-12T04:56:55;4.45;84.88
69009;SHT31;56065;52.472;13.380;2023-04-12T04:59:21;4.42;85.02
69009;SHT31;56065;52.472;13.380;2023-04-12T05:01:48;4.42;85.20
69009;SHT31;56065;52.472;13.380;2023-04-12T05:04:13;4.58;84.51
69009;SHT31;56065;52.472;13.380;2023-04-12T05:06:38;4.69;84.27
69009;SHT31;56065;52.472;13.380;2023-04-12T05:09:04;4.72;84.00
69009;SHT31;56065;52.472;13.380;2023-04-12T05:11:29;4.72;83.93
69009;SHT31;56065;52.472;13.380;2023-04-12T05:13:55;4.79;83.93
69009;SHT31;56065;52.472;13.380;2023-04-12T05:16:20;4.81;83.88
69009;SHT31;56065;52.472;13.380;2023-04-12T05:18:45;4.87;83.52
69009;SHT31;56065;52.472;13.380;2023-04-12T05:21:11;4.98;83.50
69009;SHT31;56065;52.472;13.380;2023-04-12T05:23:41;5.06;83.37
69009;SHT31;56065;52.472;13.380;2023-04-12T05:26:07;5.27;82.80
69009;SHT31;56065;52.472;13.380;2023-04-12T05:28:32;5.34;82.36
69009;SHT31;56065;52.472;13.380;2023-04-12T05:30:57;5.42;82.33
69009;SHT31;56065;52.472;13.380;2023-04-12T05:33:23;5.39;82.27
69009;SHT31;56065;52.472;13.380;2023-04-12T05:35:48;5.52;82.35
69009;SHT31;56065;52.472;13.380;2023-04-12T05:38:14;5.70;82.08
69009;SHT31;56065;52.472;13.380;2023-04-12T05:40:40;5.86;81.69
69009;SHT31;56065;52.472;13.380;2023-04-12T05:43:07;5.99;81.12
69009;SHT31;56065;52.472;13.380;2023-04-12T05:45:36;6.06;80.56
69009;SHT31;56065;52.472;13.380;2023-04-12T05:48:02;6.30;80.61
69009;SHT31;56065;52.472;13.380;2023-04-12T05:50:27;7.26;79.69
69009;SHT31;56065;52.472;13.380;2023-04-12T05:52:54;8.64;77.19
69009;SHT31;56065;52.472;13.380;2023-04-12T05:55:19;10.00;73.62
69009;SHT31;56065;52.472;13.380;2023-04-12T05:57:45;10.99;69.37
69009;SHT31;56065;52.472;13.380;2023-04-12T06:00:12;12.12;67.61
69009;SHT31;56065;52.472;13.380;2023-04-12T06:02:40;13.17;66.37
69009;SHT31;56065;52.472;13.380;2023-04-12T06:05:06;13.65;63.15
69009;SHT31;56065;52.472;13.380;2023-04-12T06:07:32;14.43;61.48
69009;SHT31;56065;52.472;13.380;2023-04-12T06:09:58;15.21;59.84
69009;SHT31;56065;52.472;13.380;2023-04-12T06:12:23;15.77;58.84
69009;SHT31;56065;52.472;13.380;2023-04-12T06:14:48;16.41;57.99
69009;SHT31;56065;52.472;13.380;2023-04-12T06:17:13;16.82;55.13
69009;SHT31;56065;52.472;13.380;2023-04-12T06:19:39;17.43;55.96
69009;SHT31;56065;52.472;13.380;2023-04-12T06:22:04;17.65;53.00
69009;SHT31;56065;52.472;13.380;2023-04-12T06:24:30;17.65;52.17
69009;SHT31;56065;52.472;13.380;2023-04-12T06:26:55;18.39;51.94
69009;SHT31;56065;52.472;13.380;2023-04-12T06:29:21;18.60;51.06
69009;SHT31;56065;52.472;13.380;2023-04-12T06:31:46;18.71;50.53
69009;SHT31;56065;52.472;13.380;2023-04-12T06:34:12;19.11;51.09
69009;SHT31;56065;52.472;13.380;2023-04-12T06:36:37;19.63;49.53
69009;SHT31;56065;52.472;13.380;2023-04-12T06:39:05;19.80;47.71
69009;SHT31;56065;52.472;13.380;2023-04-12T06:41:31;20.51;47.97
69009;SHT31;56065;52.472;13.380;2023-04-12T06:43:57;21.02;46.50
69009;SHT31;56065;52.472;13.380;2023-04-12T06:46:31;21.30;45.74
69009;SHT31;56065;52.472;13.380;2023-04-12T06:48:56;21.88;46.38
69009;SHT31;56065;52.472;13.380;2023-04-12T06:51:21;22.39;45.63
69009;SHT31;56065;52.472;13.380;2023-04-12T06:53:47;23.00;45.40
69009;SHT31;56065;52.472;13.380;2023-04-12T06:56:12;23.10;42.44
69009;SHT31;56065;52.472;13.380;2023-04-12T06:58:37;23.65;42.46
69009;SHT31;56065;52.472;13.380;2023-04-12T07:01:07;23.34;41.51
69009;SHT31;56065;52.472;13.380;2023-04-12T07:03:34;23.35;41.49
69009;SHT31;56065;52.472;13.380;2023-04-12T07:06:00;23.21;39.78
69009;SHT31;56065;52.472;13.380;2023-04-12T07:08:35;23.07;40.88
69009;SHT31;56065;52.472;13.380;2023-04-12T07:11:01;23.26;40.69
69009;SHT31;56065;52.472;13.380;2023-04-12T07:13:27;23.26;40.12
69009;SHT31;56065;52.472;13.380;2023-04-12T07:15:53;23.13;41.75
69009;SHT31;56065;52.472;13.380;2023-04-12T07:18:21;24.54;40.49
69009;SHT31;56065;52.472;13.380;2023-04-12T07:20:47;25.21;39.58
69009;SHT31;56065;52.472;13.380;2023-04-12T07:23:14;25.36;38.65
69009;SHT31;56065;52.472;13.380;2023-04-12T07:25:40;25.41;38.02
69009;SHT31;56065;52.472;13.380;2023-04-12T07:28:05;26.34;37.87
69009;SHT31;56065;52.472;13.380;2023-04-12T07:30:31;26.37;37.58
69009;SHT31;56065;52.472;13.380;2023-04-12T07:32:56;25.58;37.55
69009;SHT31;56065;52.472;13.380;2023-04-12T07:35:21;25.85;37.81
69009;SHT31;56065;52.472;13.380;2023-04-12T07:37:47;25.55;37.96
69009;SHT31;56065;52.472;13.380;2023-04-12T07:40:12;26.06;36.80
69009;SHT31;56065;52.472;13.380;2023-04-12T07:42:38;26.49;37.14
69009;SHT31;56065;52.472;13.380;2023-04-12T07:45:03;26.68;35.99
69009;SHT31;56065;52.472;13.380;2023-04-12T07:47:29;26.74;36.35
69009;SHT31;56065;52.472;13.380;2023-04-12T07:49:55;26.40;36.43
69009;SHT31;56065;52.472;13.380;2023-04-12T07:52:21;25.56;37.45
69009;SHT31;56065;52.472;13.380;2023-04-12T07:54:47;26.06;37.11
69009;SHT31;56065;52.472;13.380;2023-04-12T07:57:12;25.59;37.07
69009;SHT31;56065;52.472;13.380;2023-04-12T07:59:37;26.21;36.14
69009;SHT31;56065;52.472;13.380;2023-04-12T08:02:03;23.26;38.47
69009;SHT31;56065;52.472;13.380;2023-04-12T08:04:30;23.41;39.78
69009;SHT31;56065;52.472;13.380;2023-04-12T08:06:55;23.82;38.31
69009;SHT31;56065;52.472;13.380;2023-04-12T08:09:21;25.31;37.74
69009;SHT31;56065;52.472;13.380;2023-04-12T08:11:46;25.76;35.80
69009;SHT31;56065;52.472;13.380;2023-04-12T08:14:11;26.65;34.86
69009;SHT31;56065;52.472;13.380;2023-04-12T08:16:37;24.49;36.28
69009;SHT31;56065;52.472;13.380;2023-04-12T08:19:03;25.83;36.10
69009;SHT31;56065;52.472;13.380;2023-04-12T08:21:28;26.98;34.42
69009;SHT31;56065;52.472;13.380;2023-04-12T08:23:54;26.94;34.13
69009;SHT31;56065;52.472;13.380;2023-04-12T08:26:20;26.78;34.65
69009;SHT31;56065;52.472;13.380;2023-04-12T08:28:45;26.59;37.42
69009;SHT31;56065;52.472;13.380;2023-04-12T08:31:11;25.18;38.09
69009;SHT31;56065;52.472;13.380;2023-04-12T08:33:37;27.27;36.27
69009;SHT31;56065;52.472;13.380;2023-04-12T08:36:02;29.03;32.49
69009;SHT31;56065;52.472;13.380;2023-04-12T08:38:28;28.86;31.86
69009;SHT31;56065;52.472;13.380;2023-04-12T08:40:53;28.51;32.23
69009;SHT31;56065;52.472;13.380;2023-04-12T08:43:20;28.19;32.51
69009;SHT31;56065;52.472;13.380;2023-04-12T08:45:47;27.85;35.37
69009;SHT31;56065;52.472;13.380;2023-04-12T08:48:13;27.74;32.93
69009;SHT31;56065;52.472;13.380;2023-04-12T08:50:42;28.25;31.16
69009;SHT31;56065;52.472;13.380;2023-04-12T08:53:09;28.24;32.76
69009;SHT31;56065;52.472;13.380;2023-04-12T08:55:35;28.60;32.06
69009;SHT31;56065;52.472;13.380;2023-04-12T08:58:01;26.95;31.88
69009;SHT31;56065;52.472;13.380;2023-04-12T09:00:32;27.12;32.70
69009;SHT31;56065;52.472;13.380;2023-04-12T09:02:57;25.75;34.17
69009;SHT31;56065;52.472;13.380;2023-04-12T09:05:28;26.47;33.97
69009;SHT31;56065;52.472;13.380;2023-04-12T09:07:54;27.76;31.61
69009;SHT31;56065;52.472;13.380;2023-04-12T09:10:33;26.65;33.03
69009;SHT31;56065;52.472;13.380;2023-04-12T09:13:00;25.90;34.07
69009;SHT31;56065;52.472;13.380;2023-04-12T09:15:25;27.33;32.25
69009;SHT31;56065;52.472;13.380;2023-04-12T09:18:08;26.41;33.82
69009;SHT31;56065;52.472;13.380;2023-04-12T09:20:34;26.31;33.47
69009;SHT31;56065;52.472;13.380;2023-04-12T09:23:00;26.14;33.16
69009;SHT31;56065;52.472;13.380;2023-04-12T09:25:41;25.72;33.64
69009;SHT31;56065;52.472;13.380;2023-04-12T09:28:23;26.37;34.08
69009;SHT31;56065;52.472;13.380;2023-04-12T09:30:50;26.33;33.58
69009;SHT31;56065;52.472;13.380;2023-04-12T09:33:20;26.17;34.45
69009;SHT31;56065;52.472;13.380;2023-04-12T09:35:46;26.65;32.98
69009;SHT31;56065;52.472;13.380;2023-04-12T09:38:12;27.98;31.24
69009;SHT31;56065;52.472;13.380;2023-04-12T09:40:37;28.25;31.92
69009;SHT31;56065;52.472;13.380;2023-04-12T09:43:03;28.86;29.66
69009;SHT31;56065;52.472;13.380;2023-04-12T09:45:33;28.31;30.38
69009;SHT31;56065;52.472;13.380;2023-04-12T09:47:58;28.48;30.81
69009;SHT31;56065;52.472;13.380;2023-04-12T09:50:27;27.70;31.14
69009;SHT31;56065;52.472;13.380;2023-04-12T09:52:54;27.77;31.13
69009;SHT31;56065;52.472;13.380;2023-04-12T09:55:22;27.20;30.91
69009;SHT31;56065;52.472;13.380;2023-04-12T09:57:50;27.97;31.48
69009;SHT31;56065;52.472;13.380;2023-04-12T10:00:16;27.76;30.29
69009;SHT31;56065;52.472;13.380;2023-04-12T10:02:44;27.97;29.36
69009;SHT31;56065;52.472;13.380;2023-04-12T10:05:11;29.11;29.48
69009;SHT31;56065;52.472;13.380;2023-04-12T10:07:39;28.72;29.38
69009;SHT31;56065;52.472;13.380;2023-04-12T10:10:06;27.95;30.29
69009;SHT31;56065;52.472;13.380;2023-04-12T10:12:36;28.14;30.34
69009;SHT31;56065;52.472;13.380;2023-04-12T10:15:03;27.98;29.85
69009;SHT31;56065;52.472;13.380;2023-04-12T10:17:43;28.70;29.10
69009;SHT31;56065;52.472;13.380;2023-04-12T10:20:10;27.07;29.86
69009;SHT31;56065;52.472;13.380;2023-04-12T10:22:38;27.60;30.16
69009;SHT31;56065;52.472;13.380;2023-04-12T10:25:04;27.34;29.68
69009;SHT31;56065;52.472;13.380;2023-04-12T10:27:33;28.12;30.56
69009;SHT31;56065;52.472;13.380;2023-04-12T10:30:18;28.70;29.73
69009;SHT31;56065;52.472;13.380;2023-04-12T10:32:44;29.81;29.15
69009;SHT31;56065;52.472;13.380;2023-04-12T10:35:10;30.30;28.05
69009;SHT31;56065;52.472;13.380;2023-04-12T10:38:02;29.58;28.95
69009;SHT31;56065;52.472;13.380;2023-04-12T10:40:29;28.80;28.69
69009;SHT31;56065;52.472;13.380;2023-04-12T10:45:46;29.03;28.60
69009;SHT31;56065;52.472;13.380;2023-04-12T10:48:52;25.49;30.96
69009;SHT31;56065;52.472;13.380;2023-04-12T10:51:24;27.50;30.90
69009;SHT31;56065;52.472;13.380;2023-04-12T10:53:53;28.59;29.32
69009;SHT31;56065;52.472;13.380;2023-04-12T10:56:45;27.26;30.28
69009;SHT31;56065;52.472;13.380;2023-04-12T10:59:12;27.97;29.38
69009;SHT31;56065;52.472;13.380;2023-04-12T11:01:38;27.51;29.44
69009;SHT31;56065;52.472;13.380;2023-04-12T11:09:19;27.94;31.98
69009;SHT31;56065;52.472;13.380;2023-04-12T11:11:44;28.35;30.55
69009;SHT31;56065;52.472;13.380;2023-04-12T11:14:12;27.13;30.69
69009;SHT31;56065;52.472;13.380;2023-04-12T11:19:41;27.78;30.23
69009;SHT31;56065;52.472;13.380;2023-04-12T11:22:08;28.29;29.73
69009;SHT31;56065;52.472;13.380;2023-04-12T11:24:38;28.06;29.84
69009;SHT31;56065;52.472;13.380;2023-04-12T11:27:03;28.32;30.83
69009;SHT31;56065;52.472;13.380;2023-04-12T11:29:29;27.46;31.51
69009;SHT31;56065;52.472;13.380;2023-04-12T11:31:57;27.94;29.64
69009;SHT31;56065;52.472;13.380;2023-04-12T11:34:23;28.70;29.27
69009;SHT31;56065;52.472;13.380;2023-04-12T11:36:51;28.51;29.55
69009;SHT31;56065;52.472;13.380;2023-04-12T11:39:18;26.59;31.09
69009;SHT31;56065;52.472;13.380;2023-04-12T11:41:48;27.58;30.27
69009;SHT31;56065;52.472;13.380;2023-04-12T11:44:14;28.09;29.06
69009;SHT31;56065;52.472;13.380;2023-04-12T11:46:43;28.55;29.91
69009;SHT31;56065;52.472;13.380;2023-04-12T11:49:08;28.84;28.84
69009;SHT31;56065;52.472;13.380;2023-04-12T11:51:34;28.52;30.18
69009;SHT31;56065;52.472;13.380;2023-04-12T11:54:00;28.24;30.71
69009;SHT31;56065;52.472;13.380;2023-04-12T11:56:27;28.19;29.83
69009;SHT31;56065;52.472;13.380;2023-04-12T11:58:53;27.25;29.74
69009;SHT31;56065;52.472;13.380;2023-04-12T12:01:19;25.28;31.67
69009;SHT31;56065;52.472;13.380;2023-04-12T12:03:45;24.66;32.10
69009;SHT31;56065;52.472;13.380;2023-04-12T12:06:11;23.10;34.72
69009;SHT31;56065;52.472;13.380;2023-04-12T12:08:38;22.28;35.11
69009;SHT31;56065;52.472;13.380;2023-04-12T12:11:04;22.80;34.47
69009;SHT31;56065;52.472;13.380;2023-04-12T12:13:46;22.45;34.18
69009;SHT31;56065;52.472;13.380;2023-04-12T12:16:12;22.19;34.50
69009;SHT31;56065;52.472;13.380;2023-04-12T12:18:42;22.22;35.85
69009;SHT31;56065;52.472;13.380;2023-04-12T12:21:08;22.05;35.38
69009;SHT31;56065;52.472;13.380;2023-04-12T12:23:34;21.66;35.43
69009;SHT31;56065;52.472;13.380;2023-04-12T12:26:01;21.29;36.80
69009;SHT31;56065;52.472;13.380;2023-04-12T12:28:40;20.69;36.46
69009;SHT31;56065;52.472;13.380;2023-04-12T12:31:06;20.51;37.18
69009;SHT31;56065;52.472;13.380;2023-04-12T12:33:39;20.78;36.98
69009;SHT31;56065;52.472;13.380;2023-04-12T12:36:06;21.07;37.06
69009;SHT31;56065;52.472;13.380;2023-04-12T12:38:39;21.66;36.96
69009;SHT31;56065;52.472;13.380;2023-04-12T12:41:18;21.30;36.34
69009;SHT31;56065;52.472;13.380;2023-04-12T12:43:52;20.67;37.18
69009;SHT31;56065;52.472;13.380;2023-04-12T12:46:18;20.48;37.54
69009;SHT31;56065;52.472;13.380;2023-04-12T12:48:45;20.23;38.26
69009;SHT31;56065;52.472;13.380;2023-04-12T12:51:13;20.20;39.05
69009;SHT31;56065;52.472;13.380;2023-04-12T12:53:39;19.82;38.67
69009;SHT31;56065;52.472;13.380;2023-04-12T12:56:06;19.41;38.97
69009;SHT31;56065;52.472;13.380;2023-04-12T12:58:33;19.76;37.82
69009;SHT31;56065;52.472;13.380;2023-04-12T13:00:58;19.34;38.94
69009;SHT31;56065;52.472;13.380;2023-04-12T13:03:23;19.31;39.52
69009;SHT31;56065;52.472;13.380;2023-04-12T13:05:49;19.63;39.51
69009;SHT31;56065;52.472;13.380;2023-04-12T13:08:15;19.41;38.76
69009;SHT31;56065;52.472;13.380;2023-04-12T13:10:40;19.54;38.64
69009;SHT31;56065;52.472;13.380;2023-04-12T13:13:06;19.55;38.52
69009;SHT31;56065;52.472;13.380;2023-04-12T13:15:31;20.51;37.87
69009;SHT31;56065;52.472;13.380;2023-04-12T13:17:56;20.17;37.64
69009;SHT31;56065;52.472;13.380;2023-04-12T13:20:22;20.14;37.89
69009;SHT31;56065;52.472;13.380;2023-04-12T13:22:48;20.61;38.02
69009;SHT31;56065;52.472;13.380;2023-04-12T13:25:13;20.30;37.67
69009;SHT31;56065;52.472;13.380;2023-04-12T13:27:38;20.58;37.83
69009;SHT31;56065;52.472;13.380;2023-04-12T13:30:04;20.37;37.30
69009;SHT31;56065;52.472;13.380;2023-04-12T13:32:30;19.94;38.43
69009;SHT31;56065;52.472;13.380;2023-04-12T13:34:55;19.17;38.90
69009;SHT31;56065;52.472;13.380;2023-04-12T13:37:21;19.18;39.46
69009;SHT31;56065;52.472;13.380;2023-04-12T13:39:46;19.12;39.70
69009;SHT31;56065;52.472;13.380;2023-04-12T13:42:11;19.04;39.60
69009;SHT31;56065;52.472;13.380;2023-04-12T13:44:37;18.50;40.78
69009;SHT31;56065;52.472;13.380;2023-04-12T13:47:03;19.01;39.72
69009;SHT31;56065;52.472;13.380;2023-04-12T13:49:28;18.86;40.76
69009;SHT31;56065;52.472;13.380;2023-04-12T13:51:54;18.74;40.59
69009;SHT31;56065;52.472;13.380;2023-04-12T13:54:20;18.25;41.77
69009;SHT31;56065;52.472;13.380;2023-04-12T13:56:46;18.36;41.31
69009;SHT31;56065;52.472;13.380;2023-04-12T13:59:12;18.63;41.22
69009;SHT31;56065;52.472;13.380;2023-04-12T14:01:38;18.19;42.12
69009;SHT31;56065;52.472;13.380;2023-04-12T14:04:03;18.21;41.94
69009;SHT31;56065;52.472;13.380;2023-04-12T14:06:29;17.98;42.43
69009;SHT31;56065;52.472;13.380;2023-04-12T14:08:55;17.74;42.77
69009;SHT31;56065;52.472;13.380;2023-04-12T14:11:23;17.58;43.38
69009;SHT31;56065;52.472;13.380;2023-04-12T14:13:49;17.41;43.77
69009;SHT31;56065;52.472;13.380;2023-04-12T14:16:14;17.00;44.62
69009;SHT31;56065;52.472;13.380;2023-04-12T14:18:40;17.05;43.88
69009;SHT31;56065;52.472;13.380;2023-04-12T14:21:05;17.05;44.12
69009;SHT31;56065;52.472;13.380;2023-04-12T14:23:31;17.07;44.27
69009;SHT31;56065;52.472;13.380;2023-04-12T14:25:56;16.97;44.77
69009;SHT31;56065;52.472;13.380;2023-04-12T14:28:22;16.75;44.26
69009;SHT31;56065;52.472;13.380;2023-04-12T14:30:51;16.61;44.58
69009;SHT31;56065;52.472;13.380;2023-04-12T14:33:17;16.27;44.58
69009;SHT31;56065;52.472;13.380;2023-04-12T14:35:43;16.38;44.55
69009;SHT31;56065;52.472;13.380;2023-04-12T14:38:08;16.20;45.69
69009;SHT31;56065;52.472;13.380;2023-04-12T14:40:34;16.25;45.31
69009;SHT31;56065;52.472;13.380;2023-04-12T14:43:00;16.36;44.79
69009;SHT31;56065;52.472;13.380;2023-04-12T14:45:25;16.18;44.96
69009;SHT31;56065;52.472;13.380;2023-04-12T14:47:52;15.96;44.92
69009;SHT31;56065;52.472;13.380;2023-04-12T14:50:17;15.80;45.22
69009;SHT31;56065;52.472;13.380;2023-04-12T14:52:42;15.84;45.08
69009;SHT31;56065;52.472;13.380;2023-04-12T14:55:08;15.96;45.37
69009;SHT31;56065;52.472;13.380;2023-04-12T14:57:35;15.94;46.26
69009;SHT31;56065;52.472;13.380;2023-04-12T15:00:00;15.71;46.06
69009;SHT31;56065;52.472;13.380;2023-04-12T15:02:26;15.40;47.02
69009;SHT31;56065;52.472;13.380;2023-04-12T15:04:51;15.59;48.55
69009;SHT31;56065;52.472;13.380;2023-04-12T15:07:17;15.32;49.77
69009;SHT31;56065;52.472;13.380;2023-04-12T15:09:42;15.09;51.31
69009;SHT31;56065;52.472;13.380;2023-04-12T15:12:10;14.84;54.45
69009;SHT31;56065;52.472;13.380;2023-04-12T15:14:36;14.15;57.60
69009;SHT31;56065;52.472;13.380;2023-04-12T15:17:01;14.08;58.79
69009;SHT31;56065;52.472;13.380;2023-04-12T15:19:26;13.79;59.80
69009;SHT31;56065;52.472;13.380;2023-04-12T15:21:53;13.62;61.23
69009;SHT31;56065;52.472;13.380;2023-04-12T15:24:20;13.47;63.99
69009;SHT31;56065;52.472;13.380;2023-04-12T15:26:47;13.40;63.09
69009;SHT31;56065;52.472;13.380;2023-04-12T15:29:13;13.14;65.19
69009;SHT31;56065;52.472;13.380;2023-04-12T15:31:40;13.20;63.31
69009;SHT31;56065;52.472;13.380;2023-04-12T15:34:05;13.21;65.82
69009;SHT31;56065;52.472;13.380;2023-04-12T15:36:31;13.08;66.67